Time;durP1;ratioP1;P1;durP2;ratioP2;P2;SDS_P1;SDS_P2;PMS_P1;PMS_P2;Temp;Humidity;BMP_temperature;BMP_pressure;BME280_temperature;BME280_humidity;BME280_pressure;Samples;Min_cycle;Max_cycle;Signal;HPM_P1;HPM_P2
2021/12/06 00:02:14;;;;;;;40.70;30.63;;;6.30;76.30;;;;;;5055063;28;20412;-62
2021/12/06 00:04:40;;;;;;;39.93;30.33;;;6.40;76.60;;;;;;5068239;28;20368;-62
2021/12/06 00:07:11;;;;;;;37.33;29.00;;;6.40;76.90;;;;;;5035678;28;20029;-62
2021/12/06 00:09:38;;;;;;;38.60;28.13;;;6.40;76.60;;;;;;5050630;28;20031;-61
2021/12/06 00:12:04;;;;;;;42.13;29.20;;;6.20;76.90;;;;;;5049950;28;20025;-62
2021/12/06 00:14:35;;;;;;;39.70;29.67;;;6.30;76.90;;;;;;5040735;28;20108;-62
2021/12/06 00:17:03;;;;;;;43.20;30.93;;;6.30;76.90;;;;;;5048311;28;20544;-61
2021/12/06 00:19:30;;;;;;;44.93;30.00;;;6.30;77.00;;;;;;5041303;28;20030;-61
2021/12/06 00:21:57;;;;;;;41.97;29.67;;;6.30;77.00;;;;;;5046429;28;20459;-62
2021/12/06 00:24:22;;;;;;;41.90;30.47;;;6.30;77.00;;;;;;5052973;28;20041;-62
2021/12/06 00:26:48;;;;;;;41.73;29.70;;;6.20;77.20;;;;;;5055433;28;20485;-62
2021/12/06 00:29:14;;;;;;;42.30;30.03;;;6.20;77.80;;;;;;5054338;28;20425;-61
2021/12/06 00:31:40;;;;;;;39.00;29.27;;;6.10;77.70;;;;;;5054975;28;20036;-61
2021/12/06 00:34:10;;;;;;;39.27;30.00;;;6.10;77.90;;;;;;5054201;28;20021;-61
2021/12/06 00:36:39;;;;;;;41.23;29.07;;;6.20;77.90;;;;;;5054805;28;20116;-61
2021/12/06 00:39:08;;;;;;;37.73;27.83;;;6.00;78.00;;;;;;5044900;28;20511;-62
2021/12/06 00:41:34;;;;;;;39.53;28.30;;;6.10;78.20;;;;;;5050613;28;20359;-61
2021/12/06 00:44:01;;;;;;;39.87;28.70;;;6.20;77.80;;;;;;5053667;28;20032;-61
2021/12/06 00:46:27;;;;;;;41.80;28.43;;;6.20;78.30;;;;;;5053773;28;20494;-61
2021/12/06 00:48:52;;;;;;;38.70;27.67;;;6.20;78.20;;;;;;5047289;28;20422;-61
2021/12/06 00:51:19;;;;;;;37.50;27.33;;;6.20;78.10;;;;;;5049047;28;20051;-62
2021/12/06 00:53:45;;;;;;;38.20;28.37;;;6.20;78.10;;;;;;5054161;28;20044;-61
2021/12/06 00:56:11;;;;;;;40.00;27.80;;;6.20;78.70;;;;;;5054363;28;20025;-61
2021/12/06 00:58:37;;;;;;;35.27;26.50;;;6.20;78.20;;;;;;5046355;28;20069;-62
2021/12/06 01:01:07;;;;;;;35.50;25.90;;;6.20;78.40;;;;;;5049102;28;20585;-62
2021/12/06 01:03:35;;;;;;;34.33;24.87;;;6.20;78.70;;;;;;5052821;28;20079;-62
2021/12/06 01:06:02;;;;;;;34.10;25.40;;;6.20;78.80;;;;;;5054072;28;20041;-62
2021/12/06 01:08:28;;;;;;;36.67;25.83;;;6.20;78.90;;;;;;5052616;28;20025;-61
2021/12/06 01:10:54;;;;;;;34.13;24.57;;;6.20;79.00;;;;;;5054225;28;20115;-61
2021/12/06 01:13:21;;;;;;;35.83;24.13;;;6.20;78.60;;;;;;5050382;28;20426;-61
2021/12/06 01:15:47;;;;;;;34.20;25.30;;;6.30;78.80;;;;;;5034977;28;20044;-61
2021/12/06 01:18:16;;;;;;;33.63;24.70;;;6.10;79.00;;;;;;5052556;28;20104;-61
2021/12/06 01:20:56;;;;;;;31.67;22.80;;;6.20;79.20;;;;;;5054318;28;20099;-61
2021/12/06 01:23:27;;;;;;;34.37;25.00;;;6.10;79.00;;;;;;5052501;28;20025;-61
2021/12/06 01:31:00;;;;;;;28.87;21.67;;;6.30;79.40;;;;;;5034255;28;20091;-61
2021/12/06 01:39:14;;;;;;;30.57;23.60;;;6.20;79.70;;;;;;5038731;28;20087;-61
2021/12/06 01:41:59;;;;;;;32.72;23.60;;;6.20;79.70;;;;;;5034115;28;20507;-61
2021/12/06 01:44:47;;;;;;;30.30;22.65;;;6.20;79.90;;;;;;5036367;28;20395;-61
2021/12/06 01:47:21;;;;;;;27.00;20.97;;;6.10;79.80;;;;;;5038524;28;20444;-61
2021/12/06 01:49:51;;;;;;;28.98;21.60;;;6.20;79.70;;;;;;5039097;28;20104;-61
2021/12/06 01:52:24;;;;;;;31.03;23.20;;;6.20;79.60;;;;;;5033890;28;20060;-61
2021/12/06 01:54:51;;;;;;;31.13;22.50;;;6.10;79.20;;;;;;5045437;28;20040;-61
2021/12/06 01:57:17;;;;;;;30.83;22.00;;;6.20;79.40;;;;;;5053792;28;20025;-61
2021/12/06 01:59:43;;;;;;;27.07;20.67;;;6.20;79.60;;;;;;5041968;28;20034;-61
2021/12/06 02:02:09;;;;;;;30.03;21.97;;;6.20;80.00;;;;;;5051598;28;20482;-61
2021/12/06 02:04:37;;;;;;;29.43;21.77;;;6.20;79.40;;;;;;5041768;28;20041;-61
2021/12/06 02:07:06;;;;;;;30.27;22.37;;;6.20;79.60;;;;;;5039441;28;20033;-62
2021/12/06 02:09:32;;;;;;;27.27;19.80;;;6.10;79.50;;;;;;5050550;28;20057;-61
2021/12/06 02:12:01;;;;;;;28.27;21.40;;;6.20;79.80;;;;;;5053853;28;20037;-61
2021/12/06 02:17:13;;;;;;;29.77;20.90;;;6.20;79.80;;;;;;5051240;28;20025;-61
2021/12/06 02:19:43;;;;;;;24.73;20.00;;;6.10;79.20;;;;;;5051225;28;20025;-61
2021/12/06 02:22:13;;;;;;;28.47;20.70;;;6.10;79.40;;;;;;5044299;28;20124;-61
2021/12/06 02:24:39;;;;;;;29.10;20.43;;;6.10;79.30;;;;;;5049663;28;20047;-61
2021/12/06 02:27:07;;;;;;;26.30;19.60;;;6.10;79.50;;;;;;5050658;28;20032;-61
2021/12/06 02:29:33;;;;;;;25.60;19.20;;;6.20;79.40;;;;;;5052240;28;20094;-61
2021/12/06 02:32:00;;;;;;;26.37;19.53;;;6.10;79.50;;;;;;5053079;28;20025;-61
2021/12/06 02:34:25;;;;;;;28.83;23.03;;;6.10;79.50;;;;;;5047142;28;20030;-61
2021/12/06 02:36:51;;;;;;;35.83;26.00;;;6.10;79.60;;;;;;5031916;28;20029;-61
2021/12/06 02:39:22;;;;;;;38.70;28.67;;;6.10;79.60;;;;;;5036818;28;20398;-61
2021/12/06 02:41:51;;;;;;;42.60;30.17;;;6.00;79.00;;;;;;5052588;28;20490;-61
2021/12/06 02:44:19;;;;;;;37.07;28.70;;;6.00;80.00;;;;;;5050837;28;20560;-61
2021/12/06 02:46:45;;;;;;;37.70;28.37;;;6.00;79.50;;;;;;5052234;28;20071;-61
2021/12/06 02:49:10;;;;;;;38.73;28.63;;;6.00;79.30;;;;;;5048793;28;20052;-61
2021/12/06 02:51:37;;;;;;;41.60;30.90;;;6.00;79.10;;;;;;5045909;28;20032;-62
2021/12/06 02:54:03;;;;;;;40.77;29.50;;;;;;;;;;5051180;28;20027;-61
2021/12/06 02:56:39;;;;;;;37.33;28.50;;;;;;;;;;5033088;28;20025;-61
2021/12/06 02:59:06;;;;;;;43.57;29.47;;;;;;;;;;5037268;28;20013;-61
2021/12/06 03:01:35;;;;;;;41.57;29.23;;;;;;;;;;5052092;28;20033;-61
2021/12/06 03:04:02;;;;;;;42.10;30.20;;;;;;;;;;5051924;28;20427;-61
2021/12/06 03:06:29;;;;;;;39.30;28.57;;;;;;;;;;5050874;28;20041;-61
2021/12/06 03:09:02;;;;;;;39.93;28.73;;;;;;;;;;5050506;28;20383;-61
2021/12/06 03:11:30;;;;;;;39.30;29.57;;;;;;;;;;5033098;28;20022;-61
2021/12/06 03:13:57;;;;;;;40.37;29.37;;;;;;;;;;5034311;28;20116;-61
2021/12/06 03:16:23;;;;;;;40.43;29.73;;;;;;;;;;5032789;28;20117;-62
2021/12/06 03:18:50;;;;;;;39.27;28.10;;;;;;;;;;5050675;28;20052;-62
2021/12/06 03:21:17;;;;;;;38.50;27.37;;;;;;;;;;5044443;28;20032;-62
2021/12/06 03:23:43;;;;;;;35.13;24.43;;;;;;;;;;5052595;28;20025;-62
2021/12/06 03:26:09;;;;;;;28.67;23.43;;;;;;;;;;5051517;28;20406;-62
2021/12/06 03:28:39;;;;;;;30.53;22.37;;;;;;;;;;5052490;28;20450;-62
2021/12/06 03:31:06;;;;;;;25.73;20.63;;;;;;;;;;5050139;28;20029;-62
2021/12/06 03:33:34;;;;;;;28.43;21.23;;;;;;;;;;5052266;28;20021;-62
2021/12/06 03:36:00;;;;;;;28.40;21.43;;;;;;;;;;5051387;28;20021;-62
2021/12/06 03:38:26;;;;;;;28.63;20.23;;;;;;;;;;5052189;28;20544;-62
2021/12/06 03:40:52;;;;;;;27.27;20.60;;;;;;;;;;5050393;28;20083;-62
2021/12/06 03:43:18;;;;;;;28.23;20.57;;;;;;;;;;5050086;28;20463;-61
2021/12/06 03:45:44;;;;;;;26.83;21.07;;;;;;;;;;5044886;28;20040;-61
2021/12/06 03:48:10;;;;;;;29.23;21.50;;;;;;;;;;5051773;28;20025;-61
2021/12/06 03:50:36;;;;;;;30.50;21.00;;;;;;;;;;5039667;28;20078;-61
2021/12/06 03:53:02;;;;;;;29.13;20.57;;;;;;;;;;5033730;28;20053;-61
2021/12/06 03:55:28;;;;;;;28.37;21.20;;;;;;;;;;5032556;28;20030;-61
2021/12/06 03:57:54;;;;;;;29.43;21.00;;;;;;;;;;5033763;28;20024;-61
2021/12/06 04:00:20;;;;;;;29.30;21.03;;;;;;;;;;5043353;28;20025;-62
2021/12/06 04:02:46;;;;;;;29.27;20.93;;;;;;;;;;5035889;28;20028;-61
2021/12/06 04:05:12;;;;;;;29.30;21.70;;;;;;;;;;5035710;28;20041;-61
2021/12/06 04:07:38;;;;;;;30.40;22.73;;;;;;;;;;5035697;28;20031;-61
2021/12/06 04:10:06;;;;;;;30.33;21.13;;;;;;;;;;5040943;28;20022;-61
2021/12/06 04:12:32;;;;;;;29.37;21.77;;;;;;;;;;5051066;28;20591;-61
2021/12/06 04:14:58;;;;;;;28.87;22.30;;;;;;;;;;5049075;28;20026;-61
2021/12/06 04:17:24;;;;;;;28.97;22.03;;;;;;;;;;5035609;28;20032;-61
2021/12/06 04:20:09;;;;;;;31.97;22.40;;;;;;;;;;5037247;28;20033;-61
2021/12/06 04:22:36;;;;;;;31.23;22.85;;;5.70;90.80;;;;;;5053541;28;20031;-61
2021/12/06 04:25:03;;;;;;;28.13;19.27;;;5.80;73.10;;;;;;5048606;28;20061;-61
2021/12/06 04:27:30;;;;;;;31.60;20.90;;;5.80;72.60;;;;;;5035346;28;20013;-61
2021/12/06 04:29:56;;;;;;;29.53;21.20;;;5.80;72.30;;;;;;5042896;28;20039;-61
2021/12/06 04:32:22;;;;;;;27.70;20.60;;;5.90;72.40;;;;;;5055207;28;20061;-61
2021/12/06 04:35:05;;;;;;;28.70;21.00;;;5.90;72.30;;;;;;5053339;28;20449;-61
2021/12/06 04:37:30;;;;;;;30.30;21.47;;;5.90;72.10;;;;;;5053658;28;20053;-61
2021/12/06 04:39:56;;;;;;;29.93;20.27;;;5.80;71.80;;;;;;5053439;28;20040;-61
2021/12/06 04:42:22;;;;;;;27.80;19.77;;;5.80;71.90;;;;;;5036810;28;20411;-61
2021/12/06 04:44:48;;;;;;;30.17;21.23;;;5.70;71.90;;;;;;5049580;28;20032;-61
2021/12/06 04:47:14;;;;;;;26.20;20.33;;;5.80;72.20;;;;;;5037876;28;20033;-61
2021/12/06 04:49:40;;;;;;;27.30;19.23;;;5.70;72.10;;;;;;5038831;28;20025;-61
2021/12/06 04:52:09;;;;;;;24.67;19.30;;;5.80;72.00;;;;;;5058129;28;20087;-61
2021/12/06 04:54:38;;;;;;;27.10;18.67;;;5.70;72.00;;;;;;5055076;28;20021;-61
2021/12/06 04:57:21;;;;;;;28.63;21.70;;;5.70;72.10;;;;;;5039350;28;20044;-61
2021/12/06 04:59:51;;;;;;;28.03;20.93;;;5.70;71.90;;;;;;5040657;28;20024;-62
2021/12/06 05:02:31;;;;;;;29.60;21.47;;;5.70;72.30;;;;;;5053305;28;20028;-61
2021/12/06 05:04:59;;;;;;;26.27;19.83;;;5.70;72.40;;;;;;5054456;28;20459;-61
2021/12/06 05:07:33;;;;;;;28.27;20.40;;;5.80;74.00;;;;;;5052044;28;20035;-61
2021/12/06 05:09:59;;;;;;;28.27;20.83;;;5.70;74.80;;;;;;5052919;28;20021;-61
2021/12/06 05:12:28;;;;;;;27.70;20.13;;;5.70;69.70;;;;;;5034601;28;20395;-61
2021/12/06 05:14:54;;;;;;;28.50;19.57;;;5.60;69.60;;;;;;5034785;28;20032;-61
2021/12/06 05:17:20;;;;;;;25.43;19.80;;;5.70;69.90;;;;;;5050343;28;20387;-61
2021/12/06 05:19:46;;;;;;;29.70;20.50;;;5.70;70.00;;;;;;5053954;28;20029;-61
2021/12/06 05:22:12;;;;;;;24.83;18.87;;;5.70;69.60;;;;;;5038832;28;20034;-61
2021/12/06 05:24:38;;;;;;;27.30;20.27;;;5.70;69.20;;;;;;5047857;28;20033;-61
2021/12/06 05:27:05;;;;;;;28.43;19.60;;;5.70;68.90;;;;;;5039980;28;20127;-61
2021/12/06 05:29:32;;;;;;;28.37;20.03;;;5.60;68.40;;;;;;5049390;28;20028;-62
2021/12/06 05:31:59;;;;;;;29.97;21.77;;;5.70;69.00;;;;;;5046435;28;20028;-61
2021/12/06 05:34:30;;;;;;;28.77;20.53;;;5.70;68.70;;;;;;5053684;28;20418;-61
2021/12/06 05:36:56;;;;;;;29.30;21.27;;;5.60;68.40;;;;;;5052613;28;20029;-62
2021/12/06 05:39:22;;;;;;;28.17;20.30;;;5.60;69.00;;;;;;5053052;28;20078;-61
2021/12/06 05:41:48;;;;;;;29.37;20.67;;;5.60;69.20;;;;;;5044717;28;20029;-61
2021/12/06 05:44:14;;;;;;;34.90;25.93;;;5.60;68.80;;;;;;5043918;28;20560;-61
2021/12/06 05:46:39;;;;;;;38.30;29.40;;;5.50;68.70;;;;;;5052885;28;20600;-62
2021/12/06 05:49:05;;;;;;;38.03;28.33;;;5.50;69.00;;;;;;5052899;28;20029;-61
2021/12/06 05:51:31;;;;;;;41.37;29.03;;;;;;;;;;5050808;28;20025;-61
2021/12/06 05:53:58;;;;;;;43.63;30.83;;;;;;;;;;5046662;28;20394;-61
2021/12/06 05:56:24;;;;;;;40.60;30.87;;;;;;;;;;5048932;28;20029;-61
2021/12/06 05:58:50;;;;;;;42.90;30.70;;;;;;;;;;5033647;28;20021;-61
2021/12/06 06:01:16;;;;;;;44.13;31.93;;;;;;;;;;5038869;28;20108;-61
2021/12/06 06:03:42;;;;;;;41.33;31.67;;;;;;;;;;5053229;28;20017;-61
2021/12/06 06:06:08;;;;;;;42.63;31.17;;;;;;;;;;5048283;28;20087;-61
2021/12/06 06:08:35;;;;;;;38.33;29.17;;;;;;;;;;5033386;28;20025;-61
2021/12/06 06:11:01;;;;;;;42.10;29.53;;;;;;;;;;5036188;28;20028;-61
2021/12/06 06:13:26;;;;;;;39.10;30.00;;;;;;;;;;5053271;28;20028;-61
2021/12/06 06:15:55;;;;;;;41.13;30.07;;;;;;;;;;5050119;28;20025;-61
2021/12/06 06:18:24;;;;;;;42.83;31.40;;;;;;;;;;5033519;28;20035;-62
2021/12/06 06:20:54;;;;;;;42.30;30.53;;;;;;;;;;5034053;28;20060;-61
2021/12/06 06:23:21;;;;;;;42.40;31.30;;;;;;;;;;5052535;28;20047;-61
2021/12/06 06:25:47;;;;;;;44.53;31.63;;;;;;;;;;5052009;28;20041;-61
2021/12/06 06:28:13;;;;;;;43.40;31.50;;;;;;;;;;5033191;28;20395;-61
2021/12/06 06:30:43;;;;;;;42.60;29.33;;;;;;;;;;5044409;28;20035;-61
2021/12/06 06:33:09;;;;;;;42.10;31.07;;;5.10;86.50;;;;;;5051504;28;20029;-61
2021/12/06 06:35:35;;;;;;;41.43;29.47;;;5.20;81.10;;;;;;5053216;28;20082;-61
2021/12/06 06:38:01;;;;;;;41.20;28.90;;;5.10;78.90;;;;;;5036147;28;20128;-61
2021/12/06 06:40:27;;;;;;;43.87;30.33;;;5.20;80.00;;;;;;5045003;28;20491;-61
2021/12/06 06:42:53;;;;;;;43.47;29.07;;;;;;;;;;5033259;28;20120;-61
2021/12/06 06:45:20;;;;;;;39.23;29.37;;;5.00;76.90;;;;;;5051116;28;20487;-61
2021/12/06 06:47:47;;;;;;;45.50;30.03;;;5.10;77.90;;;;;;5034910;28;20041;-61
2021/12/06 06:50:14;;;;;;;47.17;31.47;;;5.20;77.80;;;;;;5033007;28;20498;-61
2021/12/06 06:52:40;;;;;;;45.57;31.57;;;5.20;77.60;;;;;;5047548;28;20032;-61
2021/12/06 06:55:09;;;;;;;44.67;31.07;;;5.10;77.50;;;;;;5052842;28;20021;-61
2021/12/06 06:57:35;;;;;;;41.57;29.63;;;5.10;77.40;;;;;;5051641;28;20045;-61
2021/12/06 07:00:00;;;;;;;40.63;29.10;;;5.10;78.00;;;;;;5051221;28;20487;-61
2021/12/06 07:02:26;;;;;;;40.67;29.73;;;5.00;78.00;;;;;;5044978;28;20044;-61
2021/12/06 07:04:52;;;;;;;44.37;28.43;;;5.00;78.90;;;;;;5051239;28;20041;-61
2021/12/06 07:07:18;;;;;;;40.50;29.17;;;5.10;78.50;;;;;;5039545;28;20479;-61
2021/12/06 07:09:44;;;;;;;49.93;30.03;;;5.10;78.60;;;;;;5032769;28;20108;-61
2021/12/06 07:12:16;;;;;;;39.60;28.80;;;5.10;78.50;;;;;;5042679;28;20071;-61
2021/12/06 07:14:44;;;;;;;42.83;29.03;;;5.10;78.40;;;;;;5051358;28;20047;-61
2021/12/06 07:17:10;;;;;;;46.03;29.57;;;5.20;79.00;;;;;;5045908;28;20021;-61
2021/12/06 07:19:36;;;;;;;41.43;29.20;;;5.20;79.20;;;;;;5049607;28;20395;-61
2021/12/06 07:22:03;;;;;;;45.03;30.97;;;5.30;79.20;;;;;;5051437;28;20103;-61
2021/12/06 07:24:29;;;;;;;40.40;28.60;;;5.20;78.60;;;;;;5052641;28;20059;-61
2021/12/06 07:26:55;;;;;;;39.47;28.87;;;5.20;78.70;;;;;;5047132;28;20060;-61
2021/12/06 07:29:22;;;;;;;40.73;28.80;;;5.20;79.20;;;;;;5052163;28;20025;-61
2021/12/06 07:31:47;;;;;;;37.30;27.57;;;5.20;79.40;;;;;;5051125;28;20044;-61
2021/12/06 07:34:13;;;;;;;41.07;28.23;;;5.20;79.30;;;;;;5054856;28;20078;-61
2021/12/06 07:36:39;;;;;;;36.60;27.60;;;5.20;79.20;;;;;;5049601;28;20068;-61
2021/12/06 07:39:06;;;;;;;40.07;29.03;;;5.30;79.80;;;;;;5042223;28;20436;-61
2021/12/06 07:41:32;;;;;;;38.50;28.43;;;5.30;79.70;;;;;;5055480;28;20074;-61
2021/12/06 07:43:58;;;;;;;37.40;28.17;;;5.30;80.20;;;;;;5055810;28;20116;-61
2021/12/06 07:46:24;;;;;;;37.03;27.20;;;5.40;79.70;;;;;;5052948;28;20052;-61
2021/12/06 07:48:52;;;;;;;35.33;26.67;;;5.40;80.30;;;;;;5040167;28;20028;-61
2021/12/06 07:51:29;;;;;;;43.53;27.67;;;5.40;80.00;;;;;;5055507;28;20029;-61
2021/12/06 07:53:56;;;;;;;41.33;27.43;;;5.50;79.90;;;;;;5054988;28;20505;-62
2021/12/06 07:56:43;;;;;;;39.57;28.57;;;5.50;79.80;;;;;;5050857;28;20398;-61
2021/12/06 07:59:10;;;;;;;39.90;26.93;;;5.40;80.30;;;;;;5050193;28;20036;-62
2021/12/06 08:01:35;;;;;;;39.97;27.33;;;5.50;80.20;;;;;;5053843;28;20475;-61
2021/12/06 08:04:01;;;;;;;38.60;28.90;;;5.50;79.60;;;;;;5066519;28;20043;-61
2021/12/06 08:06:27;;;;;;;41.97;29.47;;;5.50;79.70;;;;;;5041883;28;20152;-62
2021/12/06 08:08:54;;;;;;;41.33;29.07;;;5.60;80.40;;;;;;5038595;28;20030;-62
2021/12/06 08:11:21;;;;;;;39.70;28.77;;;5.60;79.80;;;;;;5049967;28;20123;-62
2021/12/06 08:13:56;;;;;;;40.37;28.37;;;5.60;79.60;;;;;;5050692;28;20088;-62
2021/12/06 08:16:43;;;;;;;42.33;29.13;;;5.70;79.70;;;;;;5053829;28;20056;-62
2021/12/06 08:19:12;;;;;;;38.47;28.43;;;5.70;79.60;;;;;;5037189;28;20033;-62
2021/12/06 08:21:39;;;;;;;37.00;26.93;;;5.60;79.80;;;;;;5041298;28;20044;-62
2021/12/06 08:24:06;;;;;;;35.73;27.57;;;5.70;80.20;;;;;;5037400;28;20034;-62
2021/12/06 08:26:35;;;;;;;39.90;27.87;;;5.70;80.30;;;;;;5043714;28;20389;-62
2021/12/06 08:29:06;;;;;;;37.73;27.53;;;5.80;80.40;;;;;;5038102;28;20025;-62
2021/12/06 08:31:32;;;;;;;38.23;26.77;;;5.80;80.10;;;;;;5040537;28;20433;-61
2021/12/06 08:33:58;;;;;;;37.63;27.93;;;5.80;80.00;;;;;;5044304;28;20025;-62
2021/12/06 08:36:25;;;;;;;35.73;27.63;;;5.80;80.30;;;;;;5053553;28;20458;-61
2021/12/06 08:38:52;;;;;;;41.47;30.03;;;5.90;80.40;;;;;;5039463;28;20111;-61
2021/12/06 08:41:26;;;;;;;41.47;28.87;;;6.00;80.50;;;;;;5051601;28;20040;-61
2021/12/06 08:43:53;;;;;;;39.83;28.37;;;5.90;80.50;;;;;;5052875;28;20098;-61
2021/12/06 08:46:35;;;;;;;39.80;28.60;;;6.00;80.60;;;;;;5034653;28;20323;-62
2021/12/06 08:49:05;;;;;;;41.93;28.30;;;6.00;80.80;;;;;;5039340;28;20493;-61
2021/12/06 08:51:46;;;;;;;44.73;30.27;;;6.00;80.40;;;;;;5055131;28;20105;-62
2021/12/06 08:54:14;;;;;;;38.53;30.03;;;6.00;81.10;;;;;;5053516;28;20075;-61
2021/12/06 08:56:40;;;;;;;41.60;29.27;;;6.00;81.40;;;;;;5054678;28;20044;-61
2021/12/06 08:59:07;;;;;;;48.43;33.27;;;6.10;81.10;;;;;;5037970;28;20087;-61
2021/12/06 09:01:34;;;;;;;48.50;33.83;;;6.00;80.10;;;;;;5034907;28;20022;-61
2021/12/06 09:04:00;;;;;;;54.47;34.77;;;5.90;79.90;;;;;;5048971;28;20021;-61
2021/12/06 09:06:26;;;;;;;51.23;35.67;;;5.90;79.40;;;;;;5035922;28;20037;-61
2021/12/06 09:08:55;;;;;;;46.83;35.03;;;5.80;80.80;;;;;;5033227;28;20029;-61
2021/12/06 09:14:43;;;;;;;48.30;36.30;;;5.70;78.10;;;;;;5047086;28;20506;-61
2021/12/06 09:17:08;;;;;;;61.93;36.50;;;5.70;80.20;;;;;;5034547;28;20022;-61
2021/12/06 09:19:34;;;;;;;50.13;35.43;;;5.50;78.80;;;;;;5036005;28;20025;-61
2021/12/06 09:22:00;;;;;;;57.10;38.63;;;5.50;77.90;;;;;;5034241;28;20431;-61
2021/12/06 09:24:26;;;;;;;54.70;37.90;;;5.30;80.00;;;;;;5034587;28;20037;-61
2021/12/06 09:26:51;;;;;;;56.23;39.17;;;5.30;79.60;;;;;;5053298;28;20109;-61
2021/12/06 09:29:18;;;;;;;64.33;40.33;;;5.40;79.50;;;;;;5047615;28;20032;-61
2021/12/06 09:31:44;;;;;;;55.17;36.17;;;5.20;79.30;;;;;;5049442;28;20033;-61
2021/12/06 09:34:10;;;;;;;53.27;38.33;;;5.20;79.40;;;;;;5035763;28;20026;-61
2021/12/06 09:36:36;;;;;;;51.93;37.93;;;5.00;80.00;;;;;;5064902;28;20236;-61
2021/12/06 09:39:05;;;;;;;58.37;40.37;;;5.10;81.10;;;;;;5044710;28;20127;-61
2021/12/06 09:41:31;;;;;;;57.80;40.63;;;5.10;80.30;;;;;;5045003;28;20025;-61
2021/12/06 09:44:01;;;;;;;53.37;39.73;;;5.00;80.90;;;;;;5051048;28;20464;-61
2021/12/06 09:46:29;;;;;;;56.17;41.07;;;5.10;80.50;;;;;;5046299;28;20625;-61
2021/12/06 09:48:55;;;;;;;58.93;41.30;;;5.10;80.50;;;;;;5032895;28;20049;-61
2021/12/06 09:51:25;;;;;;;59.50;42.37;;;5.10;81.10;;;;;;5033907;28;20029;-61
2021/12/06 09:53:54;;;;;;;58.80;41.33;;;5.30;81.10;;;;;;5033718;28;20029;-61
2021/12/06 09:56:26;;;;;;;53.50;40.23;;;5.30;80.90;;;;;;5048484;28;20033;-61
2021/12/06 09:58:52;;;;;;;62.63;42.60;;;5.20;80.10;;;;;;5053268;28;20025;-61
2021/12/06 10:01:24;;;;;;;63.97;43.47;;;5.30;80.40;;;;;;5050158;28;20063;-61
2021/12/06 10:03:53;;;;;;;61.53;43.13;;;5.40;80.00;;;;;;5052963;28;20021;-62
2021/12/06 10:06:19;;;;;;;63.70;42.67;;;5.40;80.10;;;;;;5045008;28;20469;-62
2021/12/06 10:08:49;;;;;;;66.13;43.43;;;5.50;79.50;;;;;;5033308;28;20368;-61
2021/12/06 10:11:16;;;;;;;56.33;40.27;;;5.50;78.60;;;;;;5038918;28;20033;-61
2021/12/06 10:13:42;;;;;;;55.10;41.10;;;5.50;79.20;;;;;;5051699;28;20036;-61
2021/12/06 10:16:09;;;;;;;57.50;43.67;;;5.40;79.20;;;;;;5049191;28;20398;-60
2021/12/06 10:18:34;;;;;;;60.43;41.73;;;5.50;79.20;;;;;;5053224;28;20029;-61
2021/12/06 10:21:04;;;;;;;63.83;43.10;;;5.50;79.10;;;;;;5040592;28;20246;-61
2021/12/06 10:23:31;;;;;;;62.30;42.07;;;5.50;79.70;;;;;;5035161;28;20431;-62
2021/12/06 10:26:04;;;;;;;62.97;43.00;;;5.60;79.60;;;;;;5032975;28;20115;-61
2021/12/06 10:28:30;;;;;;;64.60;45.17;;;5.60;79.00;;;;;;5051147;28;20044;-61
2021/12/06 10:30:59;;;;;;;67.20;44.13;;;5.60;79.30;;;;;;5052630;28;20104;-61
2021/12/06 10:33:28;;;;;;;70.77;45.10;;;5.50;79.30;;;;;;5049363;28;20112;-61
2021/12/06 10:36:00;;;;;;;77.00;46.97;;;5.40;79.40;;;;;;5052357;28;20079;-61
2021/12/06 10:38:29;;;;;;;73.10;45.43;;;5.50;79.70;;;;;;5049808;28;20075;-61
2021/12/06 10:41:00;;;;;;;73.87;47.57;;;5.20;79.90;;;;;;5052160;28;20048;-61
2021/12/06 10:43:26;;;;;;;72.53;47.50;;;5.30;80.40;;;;;;5035660;28;20037;-61
2021/12/06 10:45:54;;;;;;;82.53;49.73;;;5.50;80.40;;;;;;5038922;28;20094;-61
2021/12/06 10:48:33;;;;;;;81.77;48.73;;;5.40;80.00;;;;;;5051469;28;20033;-61
2021/12/06 10:51:03;;;;;;;81.13;48.27;;;5.40;80.40;;;;;;5051101;28;20495;-61
2021/12/06 10:53:42;;;;;;;75.13;47.73;;;5.20;80.60;;;;;;5045444;28;20032;-61
2021/12/06 10:56:19;;;;;;;78.93;51.50;;;5.30;80.50;;;;;;5047324;28;20039;-62
2021/12/06 10:58:45;;;;;;;74.47;46.53;;;5.10;80.80;;;;;;5049377;28;20036;-61
2021/12/06 11:01:14;;;;;;;68.40;45.33;;;5.30;80.50;;;;;;5052675;28;20025;-61
2021/12/06 11:03:45;;;;;;;69.53;45.33;;;5.10;80.90;;;;;;5051977;28;20036;-61
2021/12/06 11:06:35;;;;;;;69.83;46.50;;;5.00;81.20;;;;;;5052440;28;20025;-61
2021/12/06 11:09:04;;;;;;;62.80;43.60;;;5.10;81.70;;;;;;5055737;28;20021;-61
2021/12/06 11:11:35;;;;;;;60.93;41.43;;;4.90;82.00;;;;;;5056942;28;20441;-61
2021/12/06 11:14:32;;;;;;;67.87;44.03;;;4.70;82.80;;;;;;5036864;28;20022;-61
2021/12/06 11:17:03;;;;;;;67.27;44.60;;;5.10;81.70;;;;;;5039930;28;20486;-61
2021/12/06 11:19:31;;;;;;;62.77;43.33;;;5.10;81.30;;;;;;5053514;28;20390;-62
2021/12/06 11:22:09;;;;;;;66.77;43.03;;;5.10;81.10;;;;;;5019058;28;20036;-62
2021/12/06 11:24:39;;;;;;;66.10;42.97;;;5.10;81.00;;;;;;5048168;28;20032;-62
2021/12/06 11:27:10;;;;;;;67.03;43.90;;;5.00;81.40;;;;;;5056283;28;20040;-62
2021/12/06 11:29:57;;;;;;;64.60;43.10;;;4.90;81.30;;;;;;5055500;28;20029;-62
2021/12/06 11:32:33;;;;;;;60.60;39.60;;;5.10;81.00;;;;;;5056476;28;20027;-62
2021/12/06 11:35:08;;;;;;;58.43;39.10;;;5.00;80.40;;;;;;5055351;28;20103;-62
2021/12/06 11:37:36;;;;;;;60.20;39.00;;;5.10;80.20;;;;;;5055635;28;20076;-62
2021/12/06 11:40:13;;;;;;;56.33;37.23;;;5.00;79.30;;;;;;5040663;28;20022;-62
2021/12/06 11:43:00;;;;;;;59.07;38.90;;;5.10;79.90;;;;;;5043711;28;20490;-61
2021/12/06 11:45:43;;;;;;;59.03;37.87;;;5.20;80.10;;;;;;5053066;28;20516;-62
2021/12/06 11:48:18;;;;;;;61.67;40.07;;;5.20;79.70;;;;;;5054262;28;20027;-62
2021/12/06 11:50:47;;;;;;;60.77;39.93;;;5.20;80.00;;;;;;5036254;28;20029;-62
2021/12/06 11:53:14;;;;;;;60.00;39.47;;;5.20;80.60;;;;;;5039432;28;20443;-62
2021/12/06 11:56:07;;;;;;;59.43;39.73;;;5.20;80.30;;;;;;5055253;28;20032;-62
2021/12/06 11:58:35;;;;;;;63.93;42.17;;;5.30;80.40;;;;;;5053426;28;20036;-62
2021/12/06 12:01:17;;;;;;;64.53;41.23;;;5.40;80.40;;;;;;5035876;28;20028;-62
2021/12/06 12:03:46;;;;;;;62.90;42.17;;;5.40;81.10;;;;;;5038843;28;20327;-62
2021/12/06 12:06:32;;;;;;;72.97;44.00;;;5.50;80.10;;;;;;5055270;28;20048;-62
2021/12/06 12:09:28;;;;;;;64.27;42.73;;;5.50;80.00;;;;;;5053418;28;20031;-62
2021/12/06 12:12:08;;;;;;;;;;;5.40;81.00;;;;;;5055346;28;20486;-62
2021/12/06 12:14:58;;;;;;;68.93;43.70;;;5.10;82.20;;;;;;5053407;28;20313;-62
2021/12/06 12:17:33;;;;;;;71.27;43.37;;;5.20;82.20;;;;;;5053572;28;20116;-62
2021/12/06 12:20:02;;;;;;;65.23;42.57;;;5.20;81.60;;;;;;5053483;28;20075;-62
2021/12/06 12:22:29;;;;;;;65.23;42.93;;;5.30;82.30;;;;;;5051899;28;20033;-62
2021/12/06 12:24:59;;;;;;;60.17;40.67;;;5.30;82.90;;;;;;5054276;28;20025;-62
2021/12/06 12:27:33;;;;;;;62.80;40.30;;;5.30;81.80;;;;;;5054239;28;20479;-62
2021/12/06 12:30:00;;;;;;;58.03;39.17;;;5.40;81.50;;;;;;5055200;28;20095;-62
2021/12/06 12:32:28;;;;;;;59.13;38.90;;;5.30;82.00;;;;;;5052869;28;20079;-61
2021/12/06 12:34:56;;;;;;;59.63;40.73;;;5.20;82.10;;;;;;5050139;28;20033;-61
2021/12/06 12:37:23;;;;;;;60.70;41.37;;;5.40;81.70;;;;;;5051174;28;20402;-62
2021/12/06 12:40:05;;;;;;;57.07;40.13;;;5.40;82.40;;;;;;5055134;28;20087;-62
2021/12/06 12:42:32;;;;;;;59.47;40.57;;;5.30;82.80;;;;;;5052451;28;20086;-62
2021/12/06 12:44:59;;;;;;;55.53;39.43;;;5.30;83.30;;;;;;5054865;28;20535;-61
2021/12/06 12:47:27;;;;;;;63.17;41.57;;;5.40;82.50;;;;;;5053742;28;20027;-62
2021/12/06 12:49:57;;;;;;;55.87;38.10;;;5.50;82.10;;;;;;5055032;28;20021;-62
2021/12/06 12:52:46;;;;;;;57.03;39.67;;;5.60;82.20;;;;;;5049232;28;20030;-62
2021/12/06 12:55:29;;;;;;;56.53;37.57;;;5.40;82.20;;;;;;5034811;28;20497;-62
2021/12/06 12:58:23;;;;;;;58.00;37.57;;;5.60;82.60;;;;;;5044448;28;20025;-62
2021/12/06 13:01:08;;;;;;;52.43;37.07;;;5.60;82.50;;;;;;5053281;28;20040;-62
2021/12/06 13:04:01;;;;;;;58.53;39.88;;;5.60;83.00;;;;;;5055202;28;20034;-61
2021/12/06 13:06:35;;;;;;;59.60;39.90;;;5.80;82.60;;;;;;5034154;28;20518;-62
2021/12/06 13:09:27;;;;;;;59.33;40.90;;;5.90;82.80;;;;;;5036687;28;20079;-62
2021/12/06 13:12:06;;;;;;;59.07;39.33;;;6.00;82.90;;;;;;5049037;28;20033;-61
2021/12/06 13:14:48;;;;;;;54.20;38.97;;;6.10;82.70;;;;;;5044936;28;20119;-62
2021/12/06 13:17:41;;;;;;;54.17;39.13;;;6.10;82.40;;;;;;5050786;28;20087;-62
2021/12/06 13:20:12;;;;;;;50.93;37.03;;;6.20;82.20;;;;;;5051664;28;20189;-62
2021/12/06 13:22:47;;;;;;;53.67;38.50;;;6.20;82.50;;;;;;5055063;28;20033;-62